Airport View

Enter AWOS ICAO identifier for current METAR.

ex. KFNL

KEXX 262155Z AUTO 20007KT 10SM CLR 16/13 A2967 RMK AO2 T01630125

26 Feb 2020 22:15

Frequency: 119.825

Phone: 336-956-2967

Other Area AWOS: KRUQ - KHBI - KINT - KVUJ

TAF AMD KINT 261925Z 2619/2718 13010KT P6SM BKN030 FM262100 21011G22KT P6SM BKN050 TEMPO 2623/2703 4SM -SHRA BR BKN025 FM270300 30011G22KT P6SM BKN050 FM270600 29011G19KT P6SM SKC